Grayridge, Missouri
Current Conditions -  °F | °C
As of 1:53 PM on Friday 19 Dec 2014 (Local Time) from KPOF Reporting Station
Overcast Overcast  
Wind Chill: 36°   Ceiling: 3100
Heat Index: 40°   Visibility: 10mi
Dew Point: 28°   Wind: 6mph
Humidity: 63%   Direction: 40°NE
Pressure: 30.25"   Gusts: NA
Location:  36.82°N, 89.78°W
Report Text: KPOF 191953Z AUTO 04005KT 10SM BKN031 OVC065 04/M02 A3025 RMK AO2 SLP249 T00441022
Loading
Personal Weather Stations






























Interactive Weather Map New forecast layout! Learn more

10-Day Weather Forecast

Advertisements
Track Severe Weather on mobile